createdAt,value
2023-02-26T00:00:31.841Z,4.33
2023-02-26T00:04:32.804Z,4.13
2023-02-26T00:08:34.087Z,4.03
2023-02-26T00:12:35.829Z,3.83
2023-02-26T00:16:37.394Z,3.77
2023-02-26T00:20:38.991Z,5.37
2023-02-26T00:24:40.170Z,4.53
2023-02-26T00:28:41.843Z,4.30
2023-02-26T00:32:44.054Z,4.00
2023-02-26T00:37:12.459Z,5.27
2023-02-26T00:41:14.981Z,3.27
2023-02-26T00:45:16.702Z,3.33
2023-02-26T00:49:37.919Z,4.00
2023-02-26T00:53:48.844Z,4.17
2023-02-26T00:57:49.816Z,3.37
2023-02-26T01:01:52.204Z,3.30
2023-02-26T01:05:53.610Z,3.30
2023-02-26T01:09:55.194Z,3.80
2023-02-26T01:13:56.574Z,3.70
2023-02-26T01:18:10.710Z,4.03
2023-02-26T01:22:25.574Z,2.97
2023-02-26T01:26:28.709Z,3.47
2023-02-26T01:30:30.608Z,2.97
2023-02-26T01:34:38.388Z,2.60
2023-02-26T01:38:45.955Z,4.10
2023-02-26T01:42:50.709Z,3.50
2023-02-26T01:46:55.703Z,2.83
2023-02-26T01:50:56.593Z,2.50
2023-02-26T01:54:57.637Z,4.73
2023-02-26T01:58:59.081Z,2.40
2023-02-26T02:03:00.797Z,2.90
2023-02-26T02:07:02.971Z,3.37
2023-02-26T02:11:07.887Z,3.50
2023-02-26T02:15:27.482Z,3.30
2023-02-26T02:19:35.094Z,3.93
2023-02-26T02:23:43.075Z,3.27
2023-02-26T02:27:50.381Z,4.87
2023-02-26T02:32:07.340Z,4.37
2023-02-26T02:36:12.235Z,4.10
2023-02-26T02:40:17.034Z,4.50
2023-02-26T02:44:20.841Z,4.17
2023-02-26T02:48:34.634Z,4.40
2023-02-26T02:52:45.127Z,4.07
2023-02-26T02:57:08.029Z,4.70
2023-02-26T03:01:12.762Z,4.70
2023-02-26T03:05:14.826Z,4.23
2023-02-26T03:09:15.989Z,7.47
2023-02-26T03:13:22.205Z,5.10
2023-02-26T03:17:49.701Z,5.50
2023-02-26T03:22:03.700Z,4.60
2023-02-26T03:26:14.233Z,4.90
2023-02-26T03:30:21.852Z,4.70
2023-02-26T03:34:32.867Z,5.10
2023-02-26T03:38:49.133Z,4.80
2023-02-26T03:43:08.892Z,5.70
2023-02-26T03:47:13.281Z,4.57
2023-02-26T03:51:14.754Z,4.90
2023-02-26T03:55:19.432Z,3.43
2023-02-26T03:59:20.726Z,4.27
2023-02-26T04:03:40.606Z,4.67
2023-02-26T04:07:41.873Z,3.80
2023-02-26T04:11:43.212Z,3.63
2023-02-26T04:15:44.299Z,3.17
2023-02-26T04:19:45.411Z,3.93
2023-02-26T04:23:47.134Z,4.70
2023-02-26T04:27:48.363Z,3.70
2023-02-26T04:31:49.495Z,3.93
2023-02-26T04:35:50.495Z,4.53
2023-02-26T04:39:51.586Z,3.80
2023-02-26T04:43:52.524Z,3.53
2023-02-26T04:47:53.629Z,3.90
2023-02-26T04:51:54.792Z,4.27
2023-02-26T04:55:56.008Z,3.50
2023-02-26T04:59:57.001Z,3.77
2023-02-26T05:03:58.132Z,3.40
2023-02-26T05:07:59.240Z,3.40
2023-02-26T05:12:00.309Z,3.90
2023-02-26T05:16:01.415Z,3.73
2023-02-26T05:20:03.103Z,3.93
2023-02-26T05:24:04.447Z,3.27
2023-02-26T05:28:05.540Z,3.40
2023-02-26T05:32:06.685Z,3.80
2023-02-26T05:36:07.685Z,3.17
2023-02-26T05:40:10.502Z,4.00
2023-02-26T05:44:12.225Z,3.80
2023-02-26T05:48:13.222Z,3.97
2023-02-26T05:52:14.555Z,3.00
2023-02-26T05:56:17.576Z,3.27
2023-02-26T06:00:19.082Z,2.70
2023-02-26T06:04:22.972Z,2.70
2023-02-26T06:08:24.195Z,3.07
2023-02-26T06:12:25.407Z,3.43
2023-02-26T06:16:27.186Z,3.50
2023-02-26T06:20:28.582Z,3.40
2023-02-26T06:24:29.836Z,3.53
2023-02-26T06:28:31.357Z,3.70
2023-02-26T06:32:32.508Z,3.70
2023-02-26T06:36:33.633Z,3.87
2023-02-26T06:40:34.781Z,3.13
2023-02-26T06:44:35.926Z,3.63
2023-02-26T06:48:36.928Z,4.37
2023-02-26T06:52:38.040Z,3.30
2023-02-26T06:56:39.014Z,3.13
2023-02-26T07:00:41.071Z,4.20
2023-02-26T07:04:42.100Z,3.60
2023-02-26T07:08:43.212Z,4.10
2023-02-26T07:12:44.309Z,2.57
2023-02-26T07:16:45.419Z,3.40
2023-02-26T07:20:48.893Z,3.30
2023-02-26T07:24:50.760Z,2.97
2023-02-26T07:28:51.735Z,3.80
2023-02-26T07:32:52.891Z,3.80
2023-02-26T07:36:54.183Z,3.73
2023-02-26T07:40:55.865Z,2.90
2023-02-26T07:44:56.992Z,3.23
2023-02-26T07:48:58.111Z,2.40
2023-02-26T07:52:59.341Z,3.63
2023-02-26T07:57:00.920Z,4.17
2023-02-26T08:01:02.346Z,5.93
2023-02-26T08:05:03.919Z,3.10
2023-02-26T08:09:05.301Z,3.00
2023-02-26T08:13:06.407Z,3.80
2023-02-26T08:17:08.848Z,3.10
2023-02-26T08:21:11.026Z,3.20
2023-02-26T08:25:12.452Z,3.50
2023-02-26T08:29:13.679Z,3.73
2023-02-26T08:33:14.684Z,2.23
2023-02-26T08:37:15.815Z,3.20
2023-02-26T08:41:17.260Z,2.93
2023-02-26T08:45:18.453Z,3.20
2023-02-26T08:49:19.573Z,3.27
2023-02-26T08:53:20.869Z,3.40
2023-02-26T08:57:22.033Z,3.37
2023-02-26T09:01:23.119Z,3.00
2023-02-26T09:05:24.210Z,3.67
2023-02-26T09:09:25.274Z,2.83
2023-02-26T09:13:26.369Z,2.43
2023-02-26T09:17:27.384Z,3.13
2023-02-26T09:21:28.714Z,3.13
2023-02-26T09:25:29.681Z,2.13
2023-02-26T09:29:30.915Z,2.93
2023-02-26T09:33:32.618Z,1.67
2023-02-26T09:37:33.681Z,2.40
2023-02-26T09:41:47.677Z,2.53
2023-02-26T09:45:51.113Z,2.47
2023-02-26T09:50:06.513Z,2.60
2023-02-26T09:54:23.385Z,3.70
2023-02-26T09:58:30.916Z,3.33
2023-02-26T10:02:41.695Z,2.20
2023-02-26T10:06:58.642Z,2.20
2023-02-26T10:11:09.239Z,2.27
2023-02-26T10:15:17.016Z,2.10
2023-02-26T10:19:21.896Z,3.40
2023-02-26T10:23:38.643Z,2.37
2023-02-26T10:27:46.475Z,2.30
2023-02-26T10:32:20.301Z,1.90
2023-02-26T10:36:30.324Z,2.27
2023-02-26T10:40:56.652Z,3.10
2023-02-26T10:45:01.499Z,1.80
2023-02-26T10:49:25.851Z,1.70
2023-02-26T10:53:30.090Z,1.53
2023-02-26T10:57:34.365Z,1.67
2023-02-26T11:01:35.717Z,1.60
2023-02-26T11:05:36.953Z,2.20
2023-02-26T11:09:41.675Z,2.07
2023-02-26T11:13:44.279Z,1.80
2023-02-26T11:17:48.059Z,2.43
2023-02-26T11:21:50.446Z,2.53
2023-02-26T11:26:04.680Z,1.63
2023-02-26T11:30:17.982Z,1.30
2023-02-26T11:34:21.721Z,3.33
2023-02-26T11:38:25.578Z,1.83
2023-02-26T11:42:29.573Z,1.73
2023-02-26T11:46:30.985Z,2.00
2023-02-26T11:50:35.738Z,1.57
2023-02-26T11:54:39.763Z,1.67
2023-02-26T11:58:44.525Z,2.03
2023-02-26T12:02:45.729Z,2.03
2023-02-26T12:06:53.660Z,1.90
2023-02-26T12:11:31.686Z,1.80
2023-02-26T12:15:37.103Z,1.80
2023-02-26T12:20:16.617Z,1.63
2023-02-26T12:24:46.172Z,1.70
2023-02-26T12:29:23.247Z,1.80
2023-02-26T12:33:49.839Z,1.80
2023-02-26T12:38:00.448Z,2.57
2023-02-26T12:42:16.743Z,2.03
2023-02-26T12:46:42.073Z,1.60
2023-02-26T12:51:03.543Z,1.83
2023-02-26T12:55:23.926Z,2.27
2023-02-26T12:59:31.492Z,2.37
2023-02-26T13:03:45.319Z,2.37
2023-02-26T13:07:56.193Z,2.13
2023-02-26T13:12:23.806Z,2.20
2023-02-26T13:16:53.018Z,2.90
2023-02-26T13:20:59.844Z,2.27
2023-02-26T13:25:07.167Z,1.93
2023-02-26T13:29:39.639Z,1.70
2023-02-26T13:33:41.885Z,2.27
2023-02-26T13:37:46.330Z,1.20
2023-02-26T13:42:15.464Z,2.27
2023-02-26T13:46:20.550Z,1.90
2023-02-26T13:50:25.422Z,2.10
2023-02-26T13:54:44.228Z,1.47
2023-02-26T13:58:54.863Z,2.20
2023-02-26T14:03:14.105Z,1.57
2023-02-26T14:07:16.184Z,1.60
2023-02-26T14:11:39.061Z,2.00
2023-02-26T14:15:44.085Z,1.80
2023-02-26T14:19:51.722Z,1.73
2023-02-26T14:24:01.936Z,1.27
2023-02-26T14:28:27.210Z,1.60
2023-02-26T14:32:38.303Z,1.70
2023-02-26T14:36:46.926Z,1.40
2023-02-26T14:41:00.899Z,1.60
2023-02-26T14:45:11.672Z,1.80
2023-02-26T14:49:19.280Z,1.60
2023-02-26T14:53:35.888Z,1.50
2023-02-26T14:57:52.542Z,2.30
2023-02-26T15:02:09.373Z,1.40
2023-02-26T15:06:20.298Z,1.20
2023-02-26T15:10:44.318Z,2.60
2023-02-26T15:14:57.423Z,1.83
2023-02-26T15:19:08.045Z,1.53
2023-02-26T15:23:41.672Z,1.77
2023-02-26T15:27:42.825Z,1.60
2023-02-26T15:31:56.674Z,1.67
2023-02-26T15:35:59.257Z,1.73
2023-02-26T15:40:05.168Z,1.77
2023-02-26T15:44:13.254Z,2.03
2023-02-26T15:48:27.282Z,1.27
2023-02-26T15:52:28.931Z,1.30
2023-02-26T15:56:38.889Z,1.40
2023-02-26T16:00:41.892Z,1.47
2023-02-26T16:04:43.400Z,1.40
2023-02-26T16:08:44.618Z,1.60
2023-02-26T16:12:48.041Z,1.97
2023-02-26T16:16:52.215Z,1.57
2023-02-26T16:20:57.510Z,1.07
2023-02-26T16:25:01.837Z,1.60
2023-02-26T16:29:12.685Z,1.67
2023-02-26T16:33:16.631Z,1.43
2023-02-26T16:37:27.215Z,1.47
2023-02-26T16:41:32.160Z,1.60
2023-02-26T16:45:39.771Z,2.30
2023-02-26T16:49:44.422Z,3.27
2023-02-26T16:53:59.717Z,2.93
2023-02-26T16:58:06.338Z,2.73
2023-02-26T17:02:21.623Z,2.30
2023-02-26T17:06:23.043Z,2.10
2023-02-26T17:10:30.880Z,1.60
2023-02-26T17:14:39.925Z,2.13
2023-02-26T17:18:41.062Z,1.90
2023-02-26T17:22:44.175Z,1.90
2023-02-26T17:26:46.861Z,1.10
2023-02-26T17:30:48.477Z,1.67
2023-02-26T17:34:51.051Z,1.73
2023-02-26T17:38:52.124Z,2.43
2023-02-26T17:42:53.573Z,1.50
2023-02-26T17:46:54.817Z,1.70
2023-02-26T17:50:57.338Z,1.10
2023-02-26T17:54:58.672Z,1.97
2023-02-26T17:59:00.784Z,1.73
2023-02-26T18:03:02.933Z,1.50
2023-02-26T18:07:04.867Z,1.43
2023-02-26T18:11:06.973Z,1.67
2023-02-26T18:15:10.965Z,1.47
2023-02-26T18:19:13.299Z,2.10
2023-02-26T18:23:16.597Z,1.80
2023-02-26T18:27:22.125Z,1.77
2023-02-26T18:31:26.418Z,2.37
2023-02-26T18:35:30.120Z,1.70
2023-02-26T18:39:33.158Z,2.03
2023-02-26T18:43:34.625Z,1.73
2023-02-26T18:47:36.607Z,2.07
2023-02-26T18:51:37.708Z,2.40
2023-02-26T18:55:39.094Z,1.60
2023-02-26T18:59:40.694Z,2.03
2023-02-26T19:03:41.884Z,1.83
2023-02-26T19:07:45.938Z,2.03
2023-02-26T19:11:48.372Z,1.90
2023-02-26T19:15:50.483Z,2.70
2023-02-26T19:19:51.594Z,2.30
2023-02-26T19:23:53.794Z,2.53
2023-02-26T19:27:56.831Z,2.67
2023-02-26T19:31:58.421Z,2.70
2023-02-26T19:36:00.421Z,2.90
2023-02-26T19:40:03.420Z,2.43
2023-02-26T19:44:05.203Z,2.03
2023-02-26T19:48:06.938Z,2.07
2023-02-26T19:52:08.571Z,2.47
2023-02-26T19:56:10.434Z,2.37
2023-02-26T20:00:13.836Z,2.53
2023-02-26T20:04:16.198Z,2.73
2023-02-26T20:08:17.538Z,2.20
2023-02-26T20:12:18.924Z,2.90
2023-02-26T20:16:20.266Z,2.60
2023-02-26T20:20:22.346Z,3.20
2023-02-26T20:24:23.489Z,3.00
2023-02-26T20:28:25.129Z,3.10
2023-02-26T20:32:26.367Z,2.73
2023-02-26T20:36:27.395Z,2.93
2023-02-26T20:40:28.782Z,2.63
2023-02-26T20:44:29.804Z,2.77
2023-02-26T20:48:34.148Z,3.10
2023-02-26T20:52:35.890Z,2.37
2023-02-26T20:56:36.902Z,2.63
2023-02-26T21:00:38.400Z,2.50
2023-02-26T21:04:40.004Z,3.50
2023-02-26T21:08:42.799Z,3.20
2023-02-26T21:12:44.170Z,3.00
2023-02-26T21:16:45.556Z,2.20
2023-02-26T21:20:49.495Z,2.73
2023-02-26T21:24:51.058Z,2.73
2023-02-26T21:28:52.122Z,2.60
2023-02-26T21:32:53.138Z,2.40
2023-02-26T21:36:54.181Z,2.77
2023-02-26T21:40:55.566Z,2.73
2023-02-26T21:44:56.524Z,2.73
2023-02-26T21:48:57.680Z,2.43
2023-02-26T21:52:58.788Z,2.40
2023-02-26T21:57:00.138Z,2.40
2023-02-26T22:01:01.148Z,3.43
2023-02-26T22:05:02.284Z,2.67
2023-02-26T22:09:03.742Z,3.23
2023-02-26T22:13:04.690Z,2.90
2023-02-26T22:17:06.139Z,3.33
2023-02-26T22:21:07.421Z,2.93
2023-02-26T22:25:11.121Z,2.80
2023-02-26T22:29:12.239Z,4.23
2023-02-26T22:33:13.400Z,2.77
2023-02-26T22:37:14.498Z,3.17
2023-02-26T22:41:15.899Z,3.73
2023-02-26T22:45:17.527Z,3.33
2023-02-26T22:49:19.771Z,2.83
2023-02-26T22:53:21.451Z,3.30
2023-02-26T22:57:22.397Z,3.17
2023-02-26T23:01:23.659Z,2.87
2023-02-26T23:05:24.997Z,3.17
2023-02-26T23:09:26.391Z,3.30
2023-02-26T23:13:30.278Z,2.57
2023-02-26T23:17:31.266Z,2.87
2023-02-26T23:21:32.511Z,3.40
2023-02-26T23:25:33.720Z,2.53
2023-02-26T23:29:34.861Z,3.13
2023-02-26T23:33:36.037Z,2.80
2023-02-26T23:37:37.309Z,3.17
2023-02-26T23:41:38.796Z,3.30
2023-02-26T23:45:39.890Z,3.23
2023-02-26T23:49:40.862Z,3.17
2023-02-26T23:53:42.045Z,3.30
2023-02-26T23:57:44.158Z,3.07
